createdAt,value
2024-04-24T00:00:58.532Z,60.57
2024-04-24T00:02:30.276Z,60.99
2024-04-24T00:04:01.978Z,61.03
2024-04-24T00:05:33.721Z,61.05
2024-04-24T00:07:05.440Z,60.81
2024-04-24T00:08:37.184Z,61.31
2024-04-24T00:10:08.964Z,61.06
2024-04-24T00:11:41.123Z,60.79
2024-04-24T00:13:13.317Z,61.03
2024-04-24T00:14:45.063Z,61.24
2024-04-24T00:16:16.738Z,61.28
2024-04-24T00:17:48.860Z,60.77
2024-04-24T00:19:20.750Z,60.76
2024-04-24T00:20:56.387Z,60.83
2024-04-24T00:22:28.062Z,60.83
2024-04-24T00:23:59.818Z,60.79
2024-04-24T00:25:31.573Z,61.24
2024-04-24T00:27:03.289Z,60.60
2024-04-24T00:28:34.961Z,60.90
2024-04-24T00:30:07.117Z,61.13
2024-04-24T00:31:39.278Z,61.22
2024-04-24T00:33:11.450Z,60.94
2024-04-24T00:34:43.369Z,61.02
2024-04-24T00:36:15.959Z,61.13
2024-04-24T00:37:47.710Z,61.33
2024-04-24T00:39:19.775Z,61.33
2024-04-24T00:40:51.843Z,61.08
2024-04-24T00:42:23.646Z,61.06
2024-04-24T00:43:55.449Z,61.71
2024-04-24T00:45:27.204Z,61.16
2024-04-24T00:46:59.189Z,61.61
2024-04-24T00:48:31.131Z,61.12
2024-04-24T00:50:03.137Z,60.99
2024-04-24T00:51:34.791Z,61.31
2024-04-24T00:53:06.719Z,61.50
2024-04-24T00:54:38.732Z,61.86
2024-04-24T00:56:11.388Z,61.83
2024-04-24T00:57:43.597Z,61.37
2024-04-24T00:59:15.355Z,61.24
2024-04-24T01:00:47.689Z,61.39
2024-04-24T01:02:19.465Z,61.66
2024-04-24T01:03:51.181Z,61.84
2024-04-24T01:05:23.330Z,61.89
2024-04-24T01:06:55.533Z,61.67
2024-04-24T01:08:27.230Z,61.46
2024-04-24T01:09:59.029Z,62.08
2024-04-24T01:11:32.589Z,61.90
2024-04-24T01:13:04.752Z,61.70
2024-04-24T01:14:36.781Z,61.88
2024-04-24T01:16:15.870Z,61.44
2024-04-24T01:17:50.957Z,61.49
2024-04-24T01:19:32.195Z,61.32
2024-04-24T01:21:04.394Z,61.31
2024-04-24T01:22:45.556Z,61.06
2024-04-24T01:24:18.738Z,60.94
2024-04-24T01:25:54.926Z,60.82
2024-04-24T01:27:27.159Z,60.65
2024-04-24T01:28:58.885Z,61.26
2024-04-24T01:30:31.042Z,60.62
2024-04-24T01:32:03.058Z,60.63
2024-04-24T01:33:34.884Z,60.28
2024-04-24T01:35:06.978Z,60.83
2024-04-24T01:36:38.849Z,60.74
2024-04-24T01:38:10.542Z,61.24
2024-04-24T01:39:42.277Z,61.03
2024-04-24T01:41:14.118Z,61.03
2024-04-24T01:42:45.850Z,60.97
2024-04-24T01:44:17.606Z,61.27
2024-04-24T01:45:49.356Z,61.12
2024-04-24T01:47:21.183Z,61.06
2024-04-24T01:48:53.296Z,61.14
2024-04-24T01:50:25.178Z,61.26
2024-04-24T01:51:57.097Z,61.21
2024-04-24T01:53:29.191Z,61.80
2024-04-24T01:55:01.031Z,61.42
2024-04-24T01:56:32.809Z,61.39
2024-04-24T01:58:04.786Z,61.79
2024-04-24T01:59:36.623Z,61.68
2024-04-24T02:01:08.413Z,61.89
2024-04-24T02:02:40.158Z,62.08
2024-04-24T02:04:11.970Z,61.64
2024-04-24T02:05:44.155Z,61.69
2024-04-24T02:07:16.196Z,61.60
2024-04-24T02:08:47.952Z,61.47
2024-04-24T02:10:19.711Z,61.30
2024-04-24T02:11:59.438Z,61.11
2024-04-24T02:13:38.736Z,61.17
2024-04-24T02:15:10.528Z,61.19
2024-04-24T02:16:42.173Z,60.77
2024-04-24T02:18:14.096Z,61.37
2024-04-24T02:19:46.013Z,60.83
2024-04-24T02:21:17.896Z,60.63
2024-04-24T02:22:50.285Z,60.93
2024-04-24T02:24:41.884Z,60.50
2024-04-24T02:26:13.981Z,61.43
2024-04-24T02:27:45.946Z,61.06
2024-04-24T02:29:17.803Z,61.30
2024-04-24T02:30:49.896Z,61.04
2024-04-24T02:32:22.115Z,61.39
2024-04-24T02:33:53.988Z,60.84
2024-04-24T02:35:25.812Z,60.81
2024-04-24T02:36:58.923Z,60.82
2024-04-24T02:38:30.668Z,60.89
2024-04-24T02:40:02.426Z,60.63
2024-04-24T02:41:34.050Z,61.12
2024-04-24T02:43:05.797Z,61.05
2024-04-24T02:44:38.136Z,61.04
2024-04-24T02:46:09.871Z,61.34
2024-04-24T02:47:41.754Z,60.88
2024-04-24T02:49:13.576Z,61.33
2024-04-24T02:50:45.377Z,61.40
2024-04-24T02:52:17.111Z,61.48
2024-04-24T02:53:48.911Z,61.67
2024-04-24T02:55:20.705Z,61.49
2024-04-24T02:56:53.573Z,61.38
2024-04-24T02:58:25.522Z,61.65
2024-04-24T02:59:57.164Z,61.10
2024-04-24T03:01:28.846Z,61.21
2024-04-24T03:03:00.825Z,60.93
2024-04-24T03:04:32.657Z,61.13
2024-04-24T03:06:04.484Z,60.92
2024-04-24T03:07:37.696Z,61.28
2024-04-24T03:09:09.423Z,61.62
2024-04-24T03:10:41.249Z,61.26
2024-04-24T03:12:12.979Z,61.43
2024-04-24T03:13:44.634Z,61.63
2024-04-24T03:15:16.333Z,61.63
2024-04-24T03:16:48.201Z,61.84
2024-04-24T03:18:20.078Z,61.10
2024-04-24T03:19:51.839Z,61.18
2024-04-24T03:21:23.628Z,61.14
2024-04-24T03:22:55.356Z,61.04
2024-04-24T03:24:27.138Z,61.58
2024-04-24T03:25:58.894Z,61.45
2024-04-24T03:27:30.990Z,61.31
2024-04-24T03:29:02.892Z,61.89
2024-04-24T03:30:34.562Z,61.48
2024-04-24T03:32:06.243Z,61.53
2024-04-24T03:33:38.116Z,61.74
2024-04-24T03:35:09.889Z,61.65
2024-04-24T03:36:41.577Z,61.71
2024-04-24T03:38:13.715Z,61.46
2024-04-24T03:39:45.938Z,61.89
2024-04-24T03:41:17.648Z,61.71
2024-04-24T03:42:49.524Z,61.97
2024-04-24T03:44:21.278Z,61.97
2024-04-24T03:45:52.984Z,61.71
2024-04-24T03:47:24.786Z,61.72
2024-04-24T03:48:58.350Z,61.21
2024-04-24T03:50:30.332Z,61.65
2024-04-24T03:52:01.990Z,60.97
2024-04-24T03:53:33.817Z,61.20
2024-04-24T03:55:06.458Z,61.25
2024-04-24T03:56:38.079Z,61.19
2024-04-24T03:58:09.750Z,61.26
2024-04-24T03:59:41.461Z,61.04
2024-04-24T04:01:13.356Z,60.87
2024-04-24T04:02:45.176Z,60.62
2024-04-24T04:04:17.056Z,60.74
2024-04-24T04:05:49.219Z,61.17
2024-04-24T04:07:20.920Z,60.75
2024-04-24T04:08:52.695Z,61.06
2024-04-24T04:10:24.350Z,60.98
2024-04-24T04:11:56.075Z,61.13
2024-04-24T04:13:27.864Z,61.21
2024-04-24T04:15:01.889Z,61.64
2024-04-24T04:16:34.019Z,61.42
2024-04-24T04:18:06.515Z,61.04
2024-04-24T04:19:38.456Z,61.53
2024-04-24T04:21:10.305Z,61.18
2024-04-24T04:22:43.230Z,61.25
2024-04-24T04:24:15.118Z,61.17
2024-04-24T04:25:47.110Z,60.98
2024-04-24T04:27:18.824Z,61.03
2024-04-24T04:28:50.811Z,60.90
2024-04-24T04:30:23.040Z,60.77
2024-04-24T04:31:55.333Z,60.64
2024-04-24T04:33:27.308Z,60.82
2024-04-24T04:34:59.551Z,61.24
2024-04-24T04:36:31.342Z,61.17
2024-04-24T04:38:03.146Z,61.16
2024-04-24T04:39:34.770Z,61.03
2024-04-24T04:41:06.914Z,61.42
2024-04-24T04:42:38.667Z,61.42
2024-04-24T04:44:10.433Z,61.14
2024-04-24T04:45:42.213Z,60.93
2024-04-24T04:47:13.918Z,60.97
2024-04-24T04:48:45.731Z,61.33
2024-04-24T04:50:17.592Z,61.02
2024-04-24T04:51:49.386Z,61.08
2024-04-24T04:53:21.288Z,61.47
2024-04-24T04:54:53.152Z,61.25
2024-04-24T04:56:27.219Z,61.28
2024-04-24T04:58:04.575Z,61.76
2024-04-24T04:59:36.695Z,61.41
2024-04-24T05:01:09.873Z,61.70
2024-04-24T05:02:41.856Z,61.94
2024-04-24T05:04:13.728Z,61.84
2024-04-24T05:05:46.018Z,61.84
2024-04-24T05:07:17.700Z,61.83
2024-04-24T05:08:52.253Z,62.29
2024-04-24T05:10:25.553Z,62.21
2024-04-24T05:11:57.316Z,62.38
2024-04-24T05:13:28.998Z,61.94
2024-04-24T05:15:01.033Z,62.27
2024-04-24T05:16:33.226Z,62.54
2024-04-24T05:18:05.718Z,62.31
2024-04-24T05:19:38.090Z,61.74
2024-04-24T05:21:09.862Z,61.96
2024-04-24T05:22:48.481Z,61.89
2024-04-24T05:24:20.539Z,62.02
2024-04-24T05:25:56.768Z,61.89
2024-04-24T05:27:47.291Z,61.91
2024-04-24T05:29:19.189Z,61.90
2024-04-24T05:30:50.978Z,62.30
2024-04-24T05:32:22.824Z,62.14
2024-04-24T05:33:54.759Z,62.66
2024-04-24T05:35:26.691Z,62.46
2024-04-24T05:36:58.544Z,62.62
2024-04-24T05:38:30.417Z,62.31
2024-04-24T05:40:02.311Z,62.38
2024-04-24T05:41:34.100Z,62.08
2024-04-24T05:43:06.022Z,62.38
2024-04-24T05:44:37.776Z,62.54
2024-04-24T05:46:09.502Z,62.59
2024-04-24T05:47:41.343Z,62.70
2024-04-24T05:49:13.121Z,62.72
2024-04-24T05:50:45.163Z,62.37
2024-04-24T05:52:16.977Z,62.74
2024-04-24T05:53:48.833Z,61.93
2024-04-24T05:55:20.548Z,61.85
2024-04-24T05:56:52.266Z,61.90
2024-04-24T05:58:24.260Z,62.59
2024-04-24T05:59:55.988Z,61.98
2024-04-24T06:01:33.181Z,62.54
2024-04-24T06:03:05.490Z,62.36
2024-04-24T06:04:37.256Z,62.63
2024-04-24T06:06:09.316Z,62.38
2024-04-24T06:07:42.387Z,62.64
2024-04-24T06:09:17.210Z,62.62
2024-04-24T06:10:49.019Z,62.05
2024-04-24T06:12:20.840Z,62.17
2024-04-24T06:13:52.513Z,62.32
2024-04-24T06:15:24.439Z,61.98
2024-04-24T06:16:56.202Z,61.73
2024-04-24T06:18:27.978Z,61.76
2024-04-24T06:19:59.919Z,61.94
2024-04-24T06:21:31.665Z,61.69
2024-04-24T06:23:03.464Z,61.88
2024-04-24T06:24:35.174Z,61.93
2024-04-24T06:26:06.879Z,61.70
2024-04-24T06:27:39.726Z,61.68
2024-04-24T06:29:11.445Z,61.73
2024-04-24T06:30:43.464Z,61.60
2024-04-24T06:32:15.353Z,61.14
2024-04-24T06:33:47.350Z,61.18
2024-04-24T06:35:23.938Z,61.34
2024-04-24T06:36:57.721Z,61.64
2024-04-24T06:38:29.738Z,61.91
2024-04-24T06:40:01.558Z,61.63
2024-04-24T06:41:33.407Z,61.69
2024-04-24T06:43:05.631Z,61.85
2024-04-24T06:44:37.271Z,61.84
2024-04-24T06:46:08.988Z,61.85
2024-04-24T06:47:40.801Z,61.74
2024-04-24T06:49:12.437Z,61.89
2024-04-24T06:50:44.597Z,61.76
2024-04-24T06:52:16.270Z,61.81
2024-04-24T06:53:47.914Z,61.75
2024-04-24T06:55:22.619Z,61.82
2024-04-24T06:56:58.064Z,61.70
2024-04-24T06:58:33.167Z,61.58
2024-04-24T07:00:05.361Z,61.43
2024-04-24T07:01:37.314Z,61.43
2024-04-24T07:03:09.107Z,61.37
2024-04-24T07:04:41.651Z,61.55
2024-04-24T07:06:13.453Z,61.04
2024-04-24T07:07:45.101Z,61.19
2024-04-24T07:09:16.742Z,61.45
2024-04-24T07:10:48.552Z,61.11
2024-04-24T07:12:20.795Z,61.05
2024-04-24T07:13:53.142Z,60.73
2024-04-24T07:15:24.936Z,60.60
2024-04-24T07:16:56.633Z,60.36
2024-04-24T07:18:28.452Z,60.13
2024-04-24T07:20:00.382Z,60.03
2024-04-24T07:21:32.252Z,59.89
2024-04-24T07:23:07.300Z,59.59
2024-04-24T07:24:39.039Z,59.50
2024-04-24T07:26:10.795Z,58.89
2024-04-24T07:27:42.549Z,59.00
2024-04-24T07:29:14.275Z,59.18
2024-04-24T07:30:46.543Z,59.14
2024-04-24T07:32:18.226Z,58.94
2024-04-24T07:33:49.986Z,58.50
2024-04-24T07:35:21.669Z,58.29
2024-04-24T07:36:53.860Z,57.84
2024-04-24T07:38:26.072Z,57.84
2024-04-24T07:39:57.726Z,57.77
2024-04-24T07:41:29.910Z,57.52
2024-04-24T07:43:01.876Z,57.28
2024-04-24T07:44:33.990Z,57.15
2024-04-24T07:46:06.478Z,56.99
2024-04-24T07:47:38.276Z,56.92
2024-04-24T07:49:10.204Z,56.74
2024-04-24T07:50:43.683Z,56.70
2024-04-24T07:52:15.352Z,56.39
2024-04-24T07:53:47.505Z,56.29
2024-04-24T07:55:19.684Z,56.17
2024-04-24T07:56:51.625Z,55.92
2024-04-24T07:58:23.946Z,55.72
2024-04-24T07:59:55.608Z,55.50
2024-04-24T08:01:27.367Z,55.41
2024-04-24T08:02:59.156Z,55.23
2024-04-24T08:04:30.832Z,54.99
2024-04-24T08:06:02.538Z,55.23
2024-04-24T08:07:36.294Z,55.20
2024-04-24T08:09:07.992Z,54.75
2024-04-24T08:10:39.884Z,54.98
2024-04-24T08:12:11.695Z,54.74
2024-04-24T08:13:43.759Z,54.04
2024-04-24T08:15:15.540Z,53.57
2024-04-24T08:16:47.256Z,53.30
2024-04-24T08:18:19.018Z,53.73
2024-04-24T08:19:50.824Z,53.27
2024-04-24T08:21:22.885Z,53.42
2024-04-24T08:22:54.606Z,53.33
2024-04-24T08:24:26.311Z,52.60
2024-04-24T08:25:58.103Z,52.74
2024-04-24T08:27:30.024Z,52.74
2024-04-24T08:29:02.354Z,52.30
2024-04-24T08:30:34.094Z,51.89
2024-04-24T08:32:05.984Z,51.56
2024-04-24T08:33:37.905Z,52.09
2024-04-24T08:35:09.800Z,52.02
2024-04-24T08:36:43.595Z,51.29
2024-04-24T08:38:16.942Z,51.64
2024-04-24T08:39:49.308Z,51.49
2024-04-24T08:41:20.978Z,51.06
2024-04-24T08:42:52.691Z,51.36
2024-04-24T08:44:25.507Z,50.53
2024-04-24T08:45:59.527Z,51.01
2024-04-24T08:47:31.478Z,50.87
2024-04-24T08:49:05.339Z,51.01
2024-04-24T08:50:37.691Z,50.28
2024-04-24T08:52:09.729Z,50.33
2024-04-24T08:53:46.445Z,50.01
2024-04-24T08:55:18.639Z,49.67
2024-04-24T08:56:54.390Z,50.09
2024-04-24T08:58:26.204Z,49.33
2024-04-24T09:00:00.887Z,49.46
2024-04-24T09:01:33.831Z,49.51
2024-04-24T09:03:07.422Z,49.43
2024-04-24T09:04:41.014Z,49.25
2024-04-24T09:06:13.581Z,49.43
2024-04-24T09:07:45.242Z,49.25
2024-04-24T09:09:17.004Z,48.75
2024-04-24T09:10:50.095Z,48.89
2024-04-24T09:12:22.319Z,49.47
2024-04-24T09:13:54.844Z,49.38
2024-04-24T09:15:28.508Z,49.56
2024-04-24T09:17:01.480Z,49.11
2024-04-24T09:18:33.354Z,49.16
2024-04-24T09:20:05.224Z,48.85
2024-04-24T09:21:36.963Z,49.29
2024-04-24T09:23:15.604Z,48.97
2024-04-24T09:24:53.997Z,49.27
2024-04-24T09:26:27.737Z,48.67
2024-04-24T09:27:59.673Z,48.43
2024-04-24T09:29:31.798Z,48.47
2024-04-24T09:31:04.428Z,48.05
2024-04-24T09:32:36.304Z,48.03
2024-04-24T09:34:08.579Z,47.71
2024-04-24T09:35:40.307Z,47.45
2024-04-24T09:37:12.022Z,47.23
2024-04-24T09:38:43.723Z,47.62
2024-04-24T09:40:15.977Z,47.50
2024-04-24T09:41:48.475Z,47.53
2024-04-24T09:43:23.135Z,47.77
2024-04-24T09:44:56.176Z,47.56
2024-04-24T09:46:29.453Z,47.29
2024-04-24T09:48:01.616Z,47.30
2024-04-24T09:49:34.096Z,47.35
2024-04-24T09:51:11.100Z,46.62
2024-04-24T09:52:49.612Z,47.14
2024-04-24T09:54:22.764Z,46.97
2024-04-24T09:56:04.449Z,46.63
2024-04-24T09:57:37.426Z,46.73
2024-04-24T09:59:10.129Z,46.77
2024-04-24T10:00:41.881Z,46.72
2024-04-24T10:02:14.415Z,46.16
2024-04-24T10:03:46.981Z,45.65
2024-04-24T10:05:23.980Z,45.59
2024-04-24T10:06:59.474Z,45.55
2024-04-24T10:08:34.476Z,44.81
2024-04-24T10:10:06.900Z,45.17
2024-04-24T10:11:59.440Z,45.40
2024-04-24T10:13:31.727Z,45.13
2024-04-24T10:15:08.574Z,44.78
2024-04-24T10:16:40.304Z,44.56
2024-04-24T10:18:12.198Z,44.27
2024-04-24T10:19:44.051Z,44.57
2024-04-24T10:21:15.902Z,44.33
2024-04-24T10:22:47.708Z,43.91
2024-04-24T10:24:19.918Z,43.79
2024-04-24T10:25:53.395Z,43.37
2024-04-24T10:27:25.878Z,43.24
2024-04-24T10:28:57.721Z,42.67
2024-04-24T10:30:29.903Z,42.72
2024-04-24T10:32:02.349Z,42.50
2024-04-24T10:33:35.316Z,42.23
2024-04-24T10:35:07.539Z,42.15
2024-04-24T10:36:39.822Z,41.86
2024-04-24T10:38:13.857Z,41.77
2024-04-24T10:39:45.817Z,41.31
2024-04-24T10:41:17.816Z,41.18
2024-04-24T10:42:50.227Z,41.67
2024-04-24T10:44:22.304Z,41.57
2024-04-24T10:45:54.650Z,40.98
2024-04-24T10:47:27.188Z,41.41
2024-04-24T10:49:00.516Z,41.32
2024-04-24T10:50:35.641Z,41.35
2024-04-24T10:52:07.846Z,40.93
2024-04-24T10:53:52.447Z,40.76
2024-04-24T10:55:29.679Z,40.46
2024-04-24T10:57:03.307Z,40.79
2024-04-24T10:58:34.959Z,40.50
2024-04-24T11:00:22.318Z,40.40
2024-04-24T11:01:54.938Z,40.24
2024-04-24T11:03:26.918Z,40.06
2024-04-24T11:04:58.768Z,40.11
2024-04-24T11:06:30.811Z,40.18
2024-04-24T11:08:03.317Z,40.22
2024-04-24T11:09:35.056Z,39.65
2024-04-24T11:11:07.092Z,39.54
2024-04-24T11:12:42.203Z,39.84
2024-04-24T11:14:15.450Z,39.43
2024-04-24T11:15:54.714Z,39.54
2024-04-24T11:17:33.325Z,39.34
2024-04-24T11:19:05.028Z,39.34
2024-04-24T11:20:39.279Z,39.34
2024-04-24T11:22:11.061Z,38.92
2024-04-24T11:23:46.548Z,39.11
2024-04-24T11:25:21.591Z,39.19
2024-04-24T11:26:53.851Z,39.14
2024-04-24T11:28:27.470Z,38.66
2024-04-24T11:29:59.382Z,38.64
2024-04-24T11:31:31.707Z,38.47
2024-04-24T11:33:03.620Z,38.18
2024-04-24T11:34:36.989Z,38.16
2024-04-24T11:36:08.734Z,37.88
2024-04-24T11:37:40.672Z,38.25
2024-04-24T11:39:13.927Z,38.21
2024-04-24T11:40:45.852Z,37.97
2024-04-24T11:42:17.826Z,38.35
2024-04-24T11:43:49.999Z,38.19
2024-04-24T11:45:24.350Z,38.51
2024-04-24T11:46:58.119Z,38.03
2024-04-24T11:48:40.423Z,38.15
2024-04-24T11:50:16.243Z,37.76
2024-04-24T11:51:48.202Z,37.84
2024-04-24T11:53:20.121Z,37.80
2024-04-24T11:54:53.216Z,37.60
2024-04-24T11:56:25.552Z,37.62
2024-04-24T11:57:57.329Z,37.28
2024-04-24T11:59:31.042Z,37.62
2024-04-24T12:01:03.010Z,37.98
2024-04-24T12:02:35.885Z,37.94
2024-04-24T12:04:09.093Z,37.84
2024-04-24T12:05:41.133Z,37.87
2024-04-24T12:07:13.327Z,37.29
2024-04-24T12:08:45.709Z,37.31
2024-04-24T12:10:21.979Z,37.14
2024-04-24T12:11:53.663Z,37.37
2024-04-24T12:13:34.491Z,37.22
2024-04-24T12:15:06.353Z,37.18
2024-04-24T12:16:38.104Z,37.22
2024-04-24T12:18:09.960Z,37.15
2024-04-24T12:19:42.810Z,36.93
2024-04-24T12:21:15.744Z,37.33
2024-04-24T12:22:47.483Z,37.27
2024-04-24T12:24:19.233Z,36.68
2024-04-24T12:25:54.312Z,36.69
2024-04-24T12:27:25.970Z,36.60
2024-04-24T12:28:57.672Z,36.59
2024-04-24T12:30:29.328Z,36.28
2024-04-24T12:32:02.495Z,36.54
2024-04-24T12:33:39.264Z,36.54
2024-04-24T12:35:11.629Z,36.48
2024-04-24T12:36:43.629Z,36.48
2024-04-24T12:38:15.535Z,36.34
2024-04-24T12:39:47.953Z,35.86
2024-04-24T12:41:19.704Z,36.22
2024-04-24T12:42:52.261Z,36.01
2024-04-24T12:44:24.181Z,35.90
2024-04-24T12:45:56.543Z,35.67
2024-04-24T12:47:29.650Z,35.93
2024-04-24T12:49:04.828Z,35.87
2024-04-24T12:50:36.850Z,35.51
2024-04-24T12:52:08.900Z,35.46
2024-04-24T12:53:40.889Z,35.35
2024-04-24T12:55:13.127Z,35.31
2024-04-24T12:56:45.360Z,35.32
2024-04-24T12:58:17.833Z,35.23
2024-04-24T12:59:49.836Z,35.22
2024-04-24T13:01:22.268Z,35.31
2024-04-24T13:02:56.174Z,35.17
2024-04-24T13:04:28.299Z,34.84
2024-04-24T13:06:00.195Z,34.88
2024-04-24T13:07:32.201Z,34.73
2024-04-24T13:09:03.897Z,34.45
2024-04-24T13:10:35.944Z,34.49
2024-04-24T13:12:08.274Z,34.68
2024-04-24T13:13:39.930Z,34.36
2024-04-24T13:15:11.639Z,34.74
2024-04-24T13:16:43.679Z,34.59
2024-04-24T13:18:19.600Z,34.25
2024-04-24T13:19:53.145Z,34.10
2024-04-24T13:21:24.843Z,34.14
2024-04-24T13:22:56.793Z,34.09
2024-04-24T13:24:28.579Z,33.75
2024-04-24T13:26:00.789Z,33.96
2024-04-24T13:27:32.820Z,33.64
2024-04-24T13:29:04.614Z,33.42
2024-04-24T13:30:36.457Z,33.29
2024-04-24T13:32:08.718Z,33.33
2024-04-24T13:33:40.594Z,33.45
2024-04-24T13:35:12.476Z,33.48
2024-04-24T13:36:44.196Z,33.14
2024-04-24T13:38:17.148Z,33.10
2024-04-24T13:39:49.164Z,33.16
2024-04-24T13:41:23.917Z,32.60
2024-04-24T13:42:56.023Z,33.03
2024-04-24T13:44:27.796Z,32.64
2024-04-24T13:45:59.541Z,32.68
2024-04-24T13:47:31.502Z,32.39
2024-04-24T13:49:03.598Z,32.45
2024-04-24T13:50:35.491Z,32.67
2024-04-24T13:52:07.431Z,32.82
2024-04-24T13:53:39.480Z,32.64
2024-04-24T13:55:11.397Z,32.54
2024-04-24T13:56:43.171Z,32.17
2024-04-24T13:58:15.309Z,32.26
2024-04-24T13:59:47.095Z,31.95
2024-04-24T14:01:19.492Z,32.08
2024-04-24T14:02:52.015Z,32.09
2024-04-24T14:04:24.080Z,31.98
2024-04-24T14:05:58.504Z,31.87
2024-04-24T14:07:30.170Z,31.95
2024-04-24T14:09:02.284Z,31.96
2024-04-24T14:10:34.038Z,32.18
2024-04-24T14:12:06.262Z,32.10
2024-04-24T14:13:38.643Z,31.52
2024-04-24T14:15:10.611Z,31.80
2024-04-24T14:16:42.474Z,31.69
2024-04-24T14:18:14.239Z,31.28
2024-04-24T14:19:46.626Z,31.58
2024-04-24T14:21:20.047Z,31.73
2024-04-24T14:22:51.670Z,31.64
2024-04-24T14:24:26.671Z,31.84
2024-04-24T14:25:59.071Z,31.49
2024-04-24T14:27:30.854Z,31.30
2024-04-24T14:29:02.827Z,31.16
2024-04-24T14:30:34.761Z,31.94
2024-04-24T14:32:07.182Z,30.95
2024-04-24T14:33:38.890Z,31.47
2024-04-24T14:35:10.760Z,31.11
2024-04-24T14:36:42.527Z,31.40
2024-04-24T14:38:14.370Z,30.88
2024-04-24T14:39:46.101Z,31.43
2024-04-24T14:41:18.889Z,31.44
2024-04-24T14:42:50.698Z,30.83
2024-04-24T14:44:22.577Z,31.04
2024-04-24T14:45:54.230Z,31.22
2024-04-24T14:47:26.390Z,30.63
2024-04-24T14:49:03.017Z,30.86
2024-04-24T14:50:35.866Z,30.94
2024-04-24T14:52:08.021Z,30.66
2024-04-24T14:53:39.750Z,30.69
2024-04-24T14:55:11.782Z,31.05
2024-04-24T14:56:44.846Z,30.44
2024-04-24T14:58:16.741Z,31.09
2024-04-24T14:59:48.932Z,30.75
2024-04-24T15:01:20.876Z,30.63
2024-04-24T15:02:53.178Z,30.49
2024-04-24T15:04:24.979Z,30.92
2024-04-24T15:06:00.901Z,30.61
2024-04-24T15:07:34.065Z,31.01
2024-04-24T15:09:05.927Z,30.42
2024-04-24T15:10:37.694Z,30.48
2024-04-24T15:12:09.583Z,30.69
2024-04-24T15:13:43.366Z,30.68
2024-04-24T15:15:15.474Z,30.74
2024-04-24T15:16:47.384Z,30.54
2024-04-24T15:18:19.749Z,30.55
2024-04-24T15:19:52.004Z,30.86
2024-04-24T15:21:25.099Z,30.78
2024-04-24T15:22:57.012Z,30.36
2024-04-24T15:24:28.798Z,30.55
2024-04-24T15:26:02.062Z,30.91
2024-04-24T15:27:33.830Z,30.95
2024-04-24T15:29:06.056Z,30.90
2024-04-24T15:30:37.873Z,31.16
2024-04-24T15:32:10.047Z,30.68
2024-04-24T15:33:43.649Z,30.64
2024-04-24T15:35:16.144Z,30.52
2024-04-24T15:36:47.908Z,30.41
2024-04-24T15:38:19.580Z,30.84
2024-04-24T15:39:51.398Z,30.86
2024-04-24T15:41:23.367Z,30.55
2024-04-24T15:42:55.149Z,30.68
2024-04-24T15:44:27.048Z,31.16
2024-04-24T15:45:59.220Z,30.66
2024-04-24T15:47:31.728Z,30.75
2024-04-24T15:49:03.722Z,30.49
2024-04-24T15:50:35.986Z,30.71
2024-04-24T15:52:08.112Z,30.66
2024-04-24T15:53:40.429Z,31.14
2024-04-24T15:55:13.161Z,30.61
2024-04-24T15:56:45.293Z,30.97
2024-04-24T15:58:17.051Z,31.16
2024-04-24T15:59:48.719Z,31.32
2024-04-24T16:01:20.431Z,30.95
2024-04-24T16:02:52.781Z,30.84
2024-04-24T16:04:24.869Z,31.02
2024-04-24T16:05:56.991Z,31.15
2024-04-24T16:07:29.351Z,31.00
2024-04-24T16:09:01.178Z,31.23
2024-04-24T16:10:33.237Z,31.32
2024-04-24T16:12:04.942Z,30.95
2024-04-24T16:13:36.695Z,30.91
2024-04-24T16:15:10.701Z,30.95
2024-04-24T16:16:42.463Z,31.05
2024-04-24T16:18:14.470Z,31.11
2024-04-24T16:19:46.272Z,31.08
2024-04-24T16:21:17.975Z,31.16
2024-04-24T16:22:50.304Z,30.97
2024-04-24T16:24:22.005Z,30.69
2024-04-24T16:25:53.742Z,31.29
2024-04-24T16:27:25.437Z,30.84
2024-04-24T16:28:57.143Z,30.84
2024-04-24T16:30:29.435Z,31.20
2024-04-24T16:32:01.376Z,30.83
2024-04-24T16:33:33.257Z,31.18
2024-04-24T16:35:05.351Z,31.10
2024-04-24T16:36:37.054Z,31.32
2024-04-24T16:38:08.753Z,31.27
2024-04-24T16:39:41.888Z,31.09
2024-04-24T16:41:21.059Z,31.16
2024-04-24T16:42:52.890Z,31.29
2024-04-24T16:44:24.721Z,31.41
2024-04-24T16:45:56.690Z,31.46
2024-04-24T16:47:28.688Z,31.26
2024-04-24T16:49:00.413Z,31.30
2024-04-24T16:50:32.390Z,31.48
2024-04-24T16:52:09.162Z,31.61
2024-04-24T16:53:40.846Z,31.43
2024-04-24T16:55:13.417Z,31.58
2024-04-24T16:56:45.352Z,31.52
2024-04-24T16:58:17.066Z,31.51
2024-04-24T16:59:48.810Z,31.75
2024-04-24T17:01:20.557Z,31.78
2024-04-24T17:02:52.250Z,31.84
2024-04-24T17:04:26.044Z,32.08
2024-04-24T17:05:57.812Z,32.23
2024-04-24T17:07:29.484Z,32.35
2024-04-24T17:09:01.301Z,32.54
2024-04-24T17:10:33.327Z,32.56
2024-04-24T17:12:05.296Z,32.75
2024-04-24T17:13:37.037Z,32.23
2024-04-24T17:15:08.758Z,32.33
2024-04-24T17:16:40.486Z,32.25
2024-04-24T17:18:12.513Z,32.66
2024-04-24T17:19:44.341Z,32.35
2024-04-24T17:21:17.515Z,32.47
2024-04-24T17:22:51.399Z,32.26
2024-04-24T17:24:23.356Z,32.90
2024-04-24T17:25:55.233Z,32.53
2024-04-24T17:27:26.882Z,32.39
2024-04-24T17:28:58.695Z,32.90
2024-04-24T17:30:30.496Z,32.58
2024-04-24T17:32:02.244Z,32.68
2024-04-24T17:33:33.896Z,32.48
2024-04-24T17:35:05.840Z,32.33
2024-04-24T17:36:37.556Z,32.80
2024-04-24T17:38:09.299Z,32.82
2024-04-24T17:39:41.011Z,32.56
2024-04-24T17:41:12.790Z,32.38
2024-04-24T17:42:44.517Z,32.61
2024-04-24T17:44:17.059Z,32.65
2024-04-24T17:45:48.794Z,32.64
2024-04-24T17:47:23.886Z,32.88
2024-04-24T17:48:55.693Z,33.08
2024-04-24T17:50:27.496Z,33.02
2024-04-24T17:51:59.302Z,33.17
2024-04-24T17:53:31.202Z,33.01
2024-04-24T17:55:03.315Z,32.67
2024-04-24T17:56:36.505Z,32.96
2024-04-24T17:58:08.231Z,32.96
2024-04-24T17:59:41.302Z,32.84
2024-04-24T18:01:14.334Z,33.33
2024-04-24T18:02:48.586Z,32.95
2024-04-24T18:04:20.278Z,33.02
2024-04-24T18:05:52.080Z,33.03
2024-04-24T18:07:23.795Z,33.06
2024-04-24T18:08:55.465Z,33.34
2024-04-24T18:10:27.064Z,33.55
2024-04-24T18:11:58.960Z,33.06
2024-04-24T18:13:31.073Z,33.41
2024-04-24T18:15:02.792Z,33.40
2024-04-24T18:16:34.529Z,33.30
2024-04-24T18:18:06.591Z,33.33
2024-04-24T18:19:38.362Z,33.97
2024-04-24T18:21:10.072Z,33.58
2024-04-24T18:22:42.601Z,33.66
2024-04-24T18:24:14.517Z,33.96
2024-04-24T18:25:46.954Z,34.01
2024-04-24T18:27:18.752Z,33.84
2024-04-24T18:28:50.618Z,33.92
2024-04-24T18:30:22.469Z,34.16
2024-04-24T18:31:54.588Z,33.94
2024-04-24T18:33:26.735Z,34.50
2024-04-24T18:34:58.542Z,34.29
2024-04-24T18:36:30.777Z,34.59
2024-04-24T18:38:02.559Z,34.76
2024-04-24T18:39:34.525Z,34.59
2024-04-24T18:41:07.156Z,34.69
2024-04-24T18:42:39.217Z,34.90
2024-04-24T18:44:11.095Z,34.85
2024-04-24T18:45:43.632Z,34.50
2024-04-24T18:47:15.515Z,34.83
2024-04-24T18:48:47.411Z,34.81
2024-04-24T18:50:19.986Z,34.82
2024-04-24T18:51:51.933Z,34.71
2024-04-24T18:53:23.643Z,34.83
2024-04-24T18:54:55.402Z,34.83
2024-04-24T18:56:27.184Z,34.93
2024-04-24T18:57:58.963Z,34.87
2024-04-24T18:59:30.887Z,35.07
2024-04-24T19:01:02.944Z,35.28
2024-04-24T19:02:35.166Z,35.09
2024-04-24T19:04:13.344Z,35.11
2024-04-24T19:05:45.670Z,34.78
2024-04-24T19:07:17.744Z,35.21
2024-04-24T19:08:50.833Z,35.09
2024-04-24T19:10:22.724Z,34.82
2024-04-24T19:11:59.432Z,35.27
2024-04-24T19:13:31.535Z,35.01
2024-04-24T19:15:06.835Z,35.37
2024-04-24T19:16:38.559Z,35.28
2024-04-24T19:18:10.811Z,34.87
2024-04-24T19:19:43.989Z,35.56
2024-04-24T19:21:15.809Z,35.45
2024-04-24T19:22:47.956Z,35.48
2024-04-24T19:24:19.634Z,35.39
2024-04-24T19:25:54.082Z,35.60
2024-04-24T19:27:34.902Z,35.32
2024-04-24T19:29:12.511Z,35.06
2024-04-24T19:30:44.202Z,35.53
2024-04-24T19:32:15.975Z,35.42
2024-04-24T19:33:49.261Z,35.64
2024-04-24T19:35:21.714Z,35.59
2024-04-24T19:36:54.176Z,35.71
2024-04-24T19:38:25.862Z,35.80
2024-04-24T19:39:58.059Z,35.84
2024-04-24T19:41:31.771Z,35.68
2024-04-24T19:43:03.587Z,35.49
2024-04-24T19:44:35.329Z,35.71
2024-04-24T19:46:09.794Z,35.86
2024-04-24T19:47:43.491Z,35.98
2024-04-24T19:49:15.295Z,35.83
2024-04-24T19:50:47.864Z,35.83
2024-04-24T19:52:19.592Z,36.08